Ware River @ Gibbs Crossing, Ma

Ware River at Gibbs Crossing
 Total Drainage Area: 199 sq. miles 
 Drainage Area Controlled by Corps Dams: 55 sq. miles (28%) 
 Warning Flow/Stage: 2,030 cfs / 5.0 feet 
 Flood Flow/Stage: 2,415 cfs / 5.5 feet 
Date Time
(Eastern)
Stage
(ft)
Flow
(cfs)
CSM
(cfs / sq. mi.)
Jan-31 02:30 pm 3.84 972 4.9
Jan-31 01:30 pm 3.81 949 4.8
Jan-31 12:30 pm 3.83 964 4.9
Jan-31 11:30 am 3.83 964 4.9
Jan-31 10:30 am 3.80 942 4.7
Jan-31 09:30 am 3.80 942 4.7
Jan-31 08:30 am 3.80 942 4.7
Jan-31 07:30 am 3.81 949 4.8
Jan-31 06:30 am 3.78 924 4.6
Jan-31 05:30 am 3.78 924 4.6
Jan-31 04:30 am 3.77 915 4.6
Jan-31 03:30 am 3.76 906 4.6
Jan-31 02:30 am 3.76 906 4.6
Jan-31 01:30 am 3.75 897 4.5
Jan-31 12:30 am 3.76 906 4.6
Jan-30 11:30 pm 3.76 906 4.6
Jan-30 10:30 pm 3.77 915 4.6
Jan-30 09:30 pm 3.76 906 4.6
Jan-30 08:30 pm 3.76 906 4.6
Jan-30 07:30 pm 3.75 897 4.5
Jan-30 06:30 pm 3.77 915 4.6
Jan-30 05:30 pm 3.76 906 4.6
Jan-30 04:30 pm 3.76 906 4.6
Jan-30 03:30 pm 3.76 906 4.6
Jan-30 02:30 pm 3.77 915 4.6
Report Generated January 31, 2023 03:30 pm